createdAt,value
2023-01-29T14:07:50.590Z,101805.66
2023-01-29T14:10:21.142Z,101805.00
2023-01-29T14:12:55.830Z,101786.16
2023-01-29T14:15:31.184Z,101789.91
2023-01-29T14:18:23.099Z,101783.16
2023-01-29T14:21:07.791Z,101780.16
2023-01-29T14:23:51.608Z,101767.84
2023-01-29T14:26:23.085Z,101766.34
2023-01-29T14:29:34.351Z,101760.75
2023-01-29T14:32:19.864Z,101764.66
2023-01-29T14:34:52.471Z,101757.06
2023-01-29T14:37:23.684Z,101760.59
2023-01-29T14:39:57.841Z,101761.63
2023-01-29T14:42:36.472Z,101748.50
2023-01-29T14:45:30.231Z,101749.50
2023-01-29T14:48:09.999Z,101752.53
2023-01-29T14:50:43.947Z,101752.19
2023-01-29T14:53:30.495Z,101750.69
2023-01-29T14:56:19.599Z,101746.13
2023-01-29T14:58:51.036Z,101748.81
2023-01-29T15:01:37.177Z,101746.13
2023-01-29T15:04:23.544Z,101737.53
2023-01-29T15:07:01.600Z,101734.50
2023-01-29T15:09:44.883Z,101732.78
2023-01-29T15:12:34.668Z,101731.78
2023-01-29T15:15:35.784Z,101732.81
2023-01-29T15:18:35.277Z,101725.88
2023-01-29T15:21:16.471Z,101715.09
2023-01-29T15:23:44.845Z,101711.06
2023-01-29T15:26:24.759Z,101706.66
2023-01-29T15:29:04.610Z,101694.88
2023-01-29T15:31:32.538Z,101703.16
2023-01-29T15:34:06.504Z,101691.84
2023-01-29T15:36:33.784Z,101687.44
2023-01-29T15:39:09.831Z,101682.06
2023-01-29T15:41:36.682Z,101670.09
2023-01-29T15:44:04.252Z,101660.31
2023-01-29T15:46:38.146Z,101664.88
2023-01-29T15:49:11.631Z,101650.22
2023-01-29T15:51:39.815Z,101649.38
2023-01-29T16:05:16.083Z,101640.28
2023-01-29T18:39:27.833Z,101416.31
2023-01-29T18:41:54.766Z,101407.06
2023-01-29T18:44:21.824Z,101398.13
2023-01-29T18:46:49.759Z,101390.06
2023-01-29T18:49:17.777Z,101400.50
2023-01-29T18:51:44.739Z,101395.97
2023-01-29T18:54:13.081Z,101390.22
2023-01-29T18:57:13.854Z,101380.63
2023-01-29T18:59:27.235Z,101388.53
2023-01-29T19:01:54.630Z,101383.00
2023-01-29T19:04:21.655Z,101378.94
2023-01-29T19:06:48.475Z,101366.81
2023-01-29T19:09:15.265Z,101355.53
2023-01-29T19:11:42.273Z,101356.22
2023-01-29T19:14:09.425Z,101363.97
2023-01-29T19:16:36.488Z,101356.41
2023-01-29T19:19:03.379Z,101346.63
2023-01-29T19:21:30.810Z,101345.81
2023-01-29T19:23:58.235Z,101346.50
2023-01-29T19:26:25.283Z,101336.72
2023-01-29T19:28:52.208Z,101344.44
2023-01-29T19:31:19.378Z,101343.25
2023-01-29T19:33:46.351Z,101341.94
2023-01-29T19:36:13.932Z,101334.19
2023-01-29T19:38:41.734Z,101321.38
2023-01-29T19:41:08.826Z,101308.78
2023-01-29T19:43:35.735Z,101304.56
2023-01-29T19:46:02.790Z,101294.44
2023-01-29T19:48:33.542Z,101301.53
2023-01-29T19:51:08.684Z,101316.00
2023-01-29T19:53:37.114Z,101313.97
2023-01-29T19:56:22.214Z,101312.81
2023-01-29T19:58:49.159Z,101307.09
2023-01-29T20:01:21.894Z,101298.50
2023-01-29T20:03:50.027Z,101290.44
2023-01-29T20:06:24.376Z,101287.06
2023-01-29T20:08:51.703Z,101284.38
2023-01-29T20:11:24.181Z,101288.75
2023-01-29T20:13:52.428Z,101281.47
2023-01-29T20:16:19.655Z,101276.91
2023-01-29T20:18:46.740Z,101266.66
2023-01-29T20:21:16.841Z,101253.22
2023-01-29T20:23:45.890Z,101264.13
2023-01-29T20:26:16.096Z,101261.25
2023-01-29T20:28:45.253Z,101255.22
2023-01-29T20:31:12.268Z,101249.28
2023-01-29T20:33:39.741Z,101240.19
2023-01-29T20:36:09.253Z,101230.94
2023-01-29T20:38:36.831Z,101230.09
2023-01-29T20:41:15.376Z,101220.84
2023-01-29T20:43:43.082Z,101226.56
2023-01-29T20:46:11.059Z,101210.22
2023-01-29T20:48:38.146Z,101211.06
2023-01-29T20:51:15.751Z,101205.81
2023-01-29T20:53:45.748Z,101211.38
2023-01-29T20:56:14.127Z,101197.22
2023-01-29T20:58:41.702Z,101190.66
2023-01-29T21:01:11.609Z,101194.34
2023-01-29T21:03:39.585Z,101182.75
2023-01-29T21:06:11.566Z,101181.56
2023-01-29T21:08:39.080Z,101182.69
2023-01-29T21:11:07.968Z,101187.06
2023-01-29T21:13:35.234Z,101192.28
2023-01-29T21:16:02.609Z,101188.38
2023-01-29T21:18:29.480Z,101182.53
2023-01-29T21:20:56.516Z,101172.34
2023-01-29T21:23:23.637Z,101163.41
2023-01-29T21:25:53.623Z,101158.03
2023-01-29T21:28:20.682Z,101141.31
2023-01-29T21:30:48.179Z,101143.50
2023-01-29T21:33:15.337Z,101131.22
2023-01-29T21:35:42.469Z,101132.72
2023-01-29T21:38:11.893Z,101130.53
2023-01-29T21:40:41.353Z,101119.25
2023-01-29T21:43:12.723Z,101128.63
2023-01-29T21:45:40.775Z,101134.38
2023-01-29T21:48:08.753Z,101130.13
2023-01-29T21:50:36.252Z,101129.81
2023-01-29T21:53:03.473Z,101114.59
2023-01-29T21:55:33.892Z,101114.88
2023-01-29T21:58:01.236Z,101109.34
2023-01-29T22:00:29.012Z,101105.16
2023-01-29T22:02:56.147Z,101104.75
2023-01-29T22:05:23.442Z,101088.31
2023-01-29T22:07:50.431Z,101079.91
2023-01-29T22:10:19.093Z,101076.41
2023-01-29T22:12:46.899Z,101057.69
2023-01-29T22:15:14.875Z,101060.75
2023-01-29T22:17:42.105Z,101054.38
2023-01-29T22:20:11.103Z,101068.66
2023-01-29T22:22:37.995Z,101051.97
2023-01-29T22:25:07.267Z,101041.38
2023-01-29T22:27:34.603Z,101024.72
2023-01-29T22:30:01.394Z,101005.84
2023-01-29T22:32:28.637Z,101019.97
2023-01-29T22:34:55.649Z,101010.84
2023-01-29T22:37:22.608Z,101005.13
2023-01-29T22:39:54.468Z,100993.94
2023-01-29T22:42:21.840Z,100993.94
2023-01-29T22:44:49.083Z,100999.16
2023-01-29T22:47:16.415Z,100977.41
2023-01-29T22:49:45.748Z,100989.22
2023-01-29T22:52:12.916Z,100954.47
2023-01-29T22:54:41.737Z,100957.16
2023-01-29T22:57:11.032Z,100938.28
2023-01-29T22:59:38.397Z,100943.94
2023-01-29T23:02:05.810Z,100924.50
2023-01-29T23:04:32.866Z,100916.22
2023-01-29T23:06:59.943Z,100908.31
2023-01-29T23:09:27.127Z,100896.50
2023-01-29T23:11:54.021Z,100899.88
2023-01-29T23:14:23.325Z,100891.84
2023-01-29T23:16:50.148Z,100869.06
2023-01-29T23:19:17.185Z,100862.81
2023-01-29T23:21:44.262Z,100867.38
2023-01-29T23:24:11.095Z,100840.41
2023-01-29T23:26:56.825Z,100838.38
2023-01-29T23:29:23.899Z,100840.03
2023-01-29T23:31:50.857Z,100842.56
2023-01-29T23:34:17.709Z,100828.16
2023-01-29T23:36:45.033Z,100827.38
2023-01-29T23:39:12.464Z,100838.81
2023-01-29T23:41:39.273Z,100841.50
2023-01-29T23:44:06.244Z,100842.81
2023-01-29T23:46:33.351Z,100840.13
2023-01-29T23:49:00.338Z,100823.53
2023-01-29T23:51:27.263Z,100819.38
2023-01-29T23:53:54.258Z,100811.06
2023-01-29T23:56:21.140Z,100809.78
2023-01-29T23:58:47.842Z,100803.38
